Historique des stations

Station météo de Beddes

Altitude de la station : 224 m







Données météorologiques pour le 02/12/2021
Date
Heure
Températures Humidité Point de rosée Vitesse
du vent
Direction Rafales Windchill Pression Pluviométrie
Cumul
Date
Heure
Températures Humidité Point de rosée Vitesse
du vent
Direction Rafales Windchill Pression Pluviométrie
Cumul
02/12/2021 17:004.1 °C85 %1.7 °C10 km/hN19 km/h1.1 1014 hPa1.4 mm
02/12/2021 16:594.1 °C85 %1.7 °C18 km/hN34 km/h0.0 1014 hPa1.4 mm
02/12/2021 16:454.1 °C85 %1.7 °C14 km/hN18 km/h0.6 1014 hPa1.4 mm
02/12/2021 16:444.2 °C85 %1.7 °C13 km/hN34 km/h1.7 1014 hPa1.4 mm
02/12/2021 16:304.4 °C84 %2.2 °C6 km/hN13 km/h2.8 1013 hPa1.4 mm
02/12/2021 16:294.4 °C84 %2.2 °C10 km/hN34 km/h2.2 1013 hPa1.4 mm
02/12/2021 16:154.6 °C83 %2.2 °C5 km/hN18 km/h3.3 1013 hPa1.4 mm
02/12/2021 16:134.6 °C83 %2.2 °C10 km/hN34 km/h2.2 1013 hPa1.4 mm
02/12/2021 16:004.7 °C83 %2.2 °C10 km/hN16 km/h2.2 1013 hPa1.4 mm
02/12/2021 15:594.7 °C83 %2.2 °C8 km/hN34 km/h2.2 1013 hPa1.4 mm
02/12/2021 15:454.7 °C83 %2.2 °C13 km/hN18 km/h1.7 1013 hPa1.4 mm
02/12/2021 15:444.7 °C82 %1.7 °C8 km/hN34 km/h2.8 1013 hPa1.4 mm
02/12/2021 15:304.7 °C81 %1.7 °C6 km/hN34 km/h2.8 1013 hPa1.4 mm
02/12/2021 15:154.7 °C82 %1.7 °C10 km/hN19 km/h2.8 1013 hPa1.4 mm
02/12/2021 15:144.8 °C82 %2.2 °C16 km/hN34 km/h1.7 1013 hPa1.4 mm
02/12/2021 15:004.8 °C82 %2.2 °C5 km/hN34 km/h4.4 1013 hPa1.4 mm
02/12/2021 14:454.8 °C81 %1.7 °C5 km/hN34 km/h4.4 1013 hPa1.4 mm
02/12/2021 14:304.8 °C80 %1.7 °C10 km/hN34 km/h2.8 1013 hPa1.4 mm
02/12/2021 14:154.8 °C81 %1.7 °C10 km/hN34 km/h2.8 1013 hPa1.4 mm
02/12/2021 14:004.8 °C82 %2.2 °C8 km/hN34 km/h2.8 1013 hPa1.4 mm
02/12/2021 13:454.8 °C81 %1.7 °C6 km/hN34 km/h3.9 1013 hPa1.4 mm
02/12/2021 13:304.8 °C81 %1.7 °C6 km/hN34 km/h3.9 1013 hPa1.4 mm
02/12/2021 13:154.9 °C81 %2.2 °C13 km/hN34 km/h1.7 1013 hPa1.4 mm
02/12/2021 13:005.0 °C82 %2.2 °C5 km/hN34 km/h4.4 1013 hPa1.4 mm
02/12/2021 12:455.1 °C82 %2.2 °C6 km/hN34 km/h3.9 1013 hPa1.4 mm
02/12/2021 12:305.1 °C84 %2.8 °C8 km/hN34 km/h2.8 1013 hPa1.4 mm
02/12/2021 12:144.8 °C87 %2.8 °C13 km/hN34 km/h1.7 1013 hPa1.4 mm
02/12/2021 11:594.4 °C84 %2.2 °C18 km/hN34 km/h1.1 1013 hPa1.4 mm
02/12/2021 11:444.2 °C86 %2.2 °C14 km/hN32 km/h1.1 1013 hPa1.4 mm
02/12/2021 11:304.2 °C87 %2.2 °C5 km/hN26 km/h3.3 1013 hPa1.4 mm
02/12/2021 11:294.2 °C87 %2.2 °C19 km/hN32 km/h0.6 1013 hPa1.4 mm
02/12/2021 11:144.2 °C88 %2.2 °C10 km/hN32 km/h2.2 1013 hPa1.4 mm
02/12/2021 10:594.2 °C90 %2.8 °C23 km/hN32 km/h0.0 1013 hPa1.4 mm
02/12/2021 10:444.4 °C90 %2.8 °C14 km/hN32 km/h1.1 1012 hPa1.4 mm
02/12/2021 10:304.3 °C91 %2.8 °C5 km/hN23 km/h3.3 1012 hPa1.4 mm
02/12/2021 10:294.2 °C91 %2.8 °C19 km/hN32 km/h0.6 1012 hPa1.4 mm
02/12/2021 10:143.9 °C92 %2.8 °C3 km/hN32 km/h2.8 1012 hPa1.4 mm
02/12/2021 10:004.0 °C93 %2.8 °C18 km/hN26 km/h0.0 1011 hPa1.4 mm
02/12/2021 09:594.0 °C93 %2.8 °C3 km/hN32 km/h2.8 1011 hPa1.4 mm
02/12/2021 09:454.0 °C94 %3.3 °C14 km/hN27 km/h0.6 1011 hPa1.4 mm
02/12/2021 09:444.0 °C94 %3.3 °C5 km/hN32 km/h2.8 1011 hPa1.4 mm
02/12/2021 09:304.1 °C94 %3.3 °C6 km/hN21 km/h2.2 1011 hPa1.4 mm
02/12/2021 09:294.1 °C94 %3.3 °C5 km/hN32 km/h2.8 1011 hPa1.4 mm
02/12/2021 09:154.1 °C95 %3.3 °C8 km/hN23 km/h1.7 1011 hPa1.4 mm
02/12/2021 09:144.1 °C95 %3.3 °C5 km/hN32 km/h2.8 1011 hPa1.4 mm
02/12/2021 09:004.1 °C95 %3.3 °C14 km/hN26 km/h0.6 1010 hPa1.4 mm
02/12/2021 08:594.1 °C95 %3.3 °C-N32 km/h3.9 1010 hPa1.4 mm
02/12/2021 08:454.1 °C95 %3.3 °C21 km/hN32 km/h-0.6 1010 hPa1.2 mm
02/12/2021 08:444.1 °C95 %3.3 °C14 km/hN32 km/h0.6 1010 hPa1.2 mm
02/12/2021 08:304.1 °C95 %3.3 °C5 km/hN18 km/h2.8 1010 hPa1.2 mm
02/12/2021 08:294.1 °C95 %3.3 °C10 km/hN21 km/h1.1 1010 hPa1 mm
02/12/2021 08:154.0 °C95 %3.3 °C13 km/hN16 km/h1.1 1010 hPa1 mm
02/12/2021 08:144.1 °C95 %3.3 °C10 km/hN18 km/h1.1 1010 hPa1 mm
02/12/2021 08:004.1 °C95 %3.3 °C13 km/hN18 km/h1.1 1009 hPa0.8 mm
02/12/2021 07:594.1 °C95 %3.3 °C6 km/hN18 km/h2.2 1009 hPa0.8 mm
02/12/2021 07:454.2 °C95 %3.3 °C10 km/hN16 km/h2.2 1009 hPa0.8 mm
02/12/2021 07:444.2 °C95 %3.3 °C6 km/hN18 km/h2.8 1009 hPa0.8 mm
02/12/2021 07:304.3 °C95 %3.3 °C13 km/hN16 km/h1.7 1009 hPa0.6 mm
02/12/2021 07:294.2 °C95 %3.3 °C8 km/hN18 km/h2.2 1009 hPa0.6 mm
02/12/2021 07:154.3 °C95 %3.9 °C13 km/hN13 km/h1.7 1009 hPa0.6 mm
02/12/2021 07:144.3 °C95 %3.9 °C8 km/hN18 km/h2.2 1009 hPa0.6 mm
02/12/2021 07:004.4 °C95 %3.9 °C5 km/hN16 km/h3.3 1009 hPa0.6 mm
02/12/2021 06:594.4 °C95 %3.9 °C5 km/hN18 km/h3.3 1009 hPa0.6 mm
02/12/2021 06:454.6 °C95 %3.9 °C6 km/hN14 km/h2.8 1009 hPa0.6 mm
02/12/2021 06:444.6 °C95 %3.9 °C8 km/hN18 km/h2.2 1008 hPa0.6 mm
02/12/2021 06:304.6 °C95 %3.9 °C5 km/hN18 km/h3.3 1008 hPa0.6 mm
02/12/2021 06:154.7 °C95 %3.9 °C6 km/hN18 km/h2.8 1008 hPa0.6 mm
02/12/2021 06:004.7 °C95 %3.9 °C5 km/hN18 km/h3.3 1008 hPa0.6 mm
02/12/2021 05:454.7 °C95 %3.9 °C3 km/hN10 km/h4.4 1008 hPa0.6 mm
02/12/2021 05:444.7 °C95 %3.9 °C3 km/hN18 km/h4.4 1008 hPa0.6 mm
02/12/2021 05:304.8 °C95 %3.9 °C10 km/hN18 km/h2.8 1008 hPa0.6 mm
02/12/2021 05:154.8 °C95 %3.9 °C6 km/hN14 km/h3.9 1008 hPa0.6 mm
02/12/2021 05:144.8 °C95 %3.9 °C10 km/hN18 km/h2.8 1008 hPa0.6 mm
02/12/2021 05:004.9 °C95 %4.4 °C8 km/hN18 km/h2.8 1008 hPa0.6 mm
02/12/2021 04:445.0 °C95 %4.4 °C8 km/hN18 km/h2.8 1008 hPa0.4 mm
02/12/2021 04:295.1 °C95 %4.4 °C5 km/hN18 km/h4.4 1008 hPa0.4 mm
02/12/2021 04:145.2 °C95 %4.4 °C14 km/hN18 km/h1.7 1008 hPa0.4 mm
02/12/2021 03:595.2 °C95 %4.4 °C8 km/hN18 km/h2.8 1008 hPa0.2 mm
02/12/2021 03:445.2 °C95 %4.4 °C13 km/hN18 km/h1.7 1008 hPa0.2 mm
02/12/2021 03:295.2 °C95 %4.4 °C10 km/hN16 km/h2.8 1008 hPa0.2 mm
02/12/2021 03:145.1 °C95 %4.4 °C13 km/hN16 km/h1.7 1008 hPa0.2 mm
02/12/2021 02:595.1 °C95 %4.4 °C8 km/hN16 km/h2.8 1008 hPa0.2 mm
02/12/2021 02:445.1 °C95 %4.4 °C10 km/hN16 km/h2.8 1008 hPa0.2 mm
02/12/2021 02:295.1 °C94 %4.4 °C5 km/hN14 km/h4.4 1008 hPa0.2 mm
02/12/2021 02:145.2 °C94 %4.4 °C6 km/hN14 km/h3.9 1008 hPa0.2 mm
02/12/2021 01:595.4 °C94 %4.4 °C6 km/hN14 km/h4.4 1007 hPa0.2 mm
02/12/2021 01:455.4 °C95 %5.0 °C6 km/hN14 km/h4.4 1007 hPa0.2 mm
02/12/2021 01:445.4 °C95 %5.0 °C6 km/hN14 km/h4.4 1007 hPa0.2 mm
02/12/2021 01:305.4 °C95 %5.0 °C3 km/hN13 km/h5.0 1007 hPa0.2 mm
02/12/2021 01:295.4 °C95 %5.0 °C6 km/hN14 km/h4.4 1007 hPa0.2 mm
02/12/2021 01:165.3 °C95 %4.4 °C6 km/hN10 km/h4.4 1008 hPa0.2 mm
02/12/2021 01:145.3 °C95 %4.4 °C6 km/hN14 km/h4.4 1008 hPa0.2 mm
02/12/2021 01:025.2 °C95 %4.4 °C6 km/hN10 km/h3.9 1008 hPa0.2 mm
02/12/2021 01:015.2 °C95 %4.4 °C5 km/hN14 km/h4.4 1008 hPa0.2 mm
02/12/2021 00:455.2 °C94 %4.4 °C3 km/hN8 km/h4.4 1008 hPa0.2 mm
02/12/2021 00:445.2 °C94 %4.4 °C3 km/hN14 km/h4.4 1008 hPa-
02/12/2021 00:305.3 °C94 %4.4 °C5 km/hN13 km/h5.0 1008 hPa-
02/12/2021 00:295.3 °C94 %4.4 °C6 km/hN14 km/h4.4 1008 hPa-
02/12/2021 00:155.3 °C94 %4.4 °C6 km/hN13 km/h4.4 1008 hPa-
02/12/2021 00:145.4 °C94 %4.4 °C10 km/hN13 km/h3.3 1008 hPa-
02/12/2021 00:005.4 °C95 %5.0 °C5 km/hN13 km/h5.0 1008 hPa-


Minima :

Température : 3.9 °C
Humidité : 80 %
Point de rosée : 1.7 °C
Vent moyen : 3 km/h
Windchill : -0.6
Pression atm. : 1007 hPa
Maxima :

Température : 5.4 °C
Humidité : 95 %
Point de rosée : 5.0 °C
Vent moyen : 23 km/h
Windchill : 5.0
Pression atm. : 1014 hPa
Rafales max : 34 km/h
Cumul de pluie sur 24H : 1.4 mm

Beddes est une commune du département Cher (18).
La station météorologique du réseau de l'association la plus proche de Beddes est celle de Culan



Icône Facebook Association Météo Centre Icône Twitter Association Météo Centre Icône Chaîne Youtube Association Météo Centre Icône contact Association Météo Centre Icône Insta Association Météo Centre